Time;durP1;ratioP1;P1;durP2;ratioP2;P2;SDS_P1;SDS_P2;PMS_P1;PMS_P2;Temp;Humidity;BMP_temperature;BMP_pressure;BME280_temperature;BME280_humidity;BME280_pressure;Samples;Min_cycle;Max_cycle;Signal;HPM_P1;HPM_P2
2022/05/13 00:01:30;;;;;;;5.70;1.10;;;;;;;11.41;61.47;97810.78;5038439;28;20145;-64
2022/05/13 00:03:58;;;;;;;3.03;1.20;;;;;;;11.43;61.50;97805.63;5020847;28;20057;-64
2022/05/13 00:06:25;;;;;;;1.20;0.80;;;;;;;11.45;60.52;97806.06;5038662;28;20084;-65
2022/05/13 00:08:52;;;;;;;1.65;1.00;;;;;;;11.52;61.03;97806.13;5038776;28;20053;-65
2022/05/13 00:11:20;;;;;;;3.35;1.20;;;;;;;11.51;61.14;97803.72;5039198;28;20072;-64
2022/05/13 00:13:47;;;;;;;2.03;1.13;;;;;;;11.51;60.95;97812.88;5020926;28;20410;-64
2022/05/13 00:16:15;;;;;;;2.30;1.15;;;;;;;11.54;60.87;97809.34;5038683;28;20053;-64
2022/05/13 00:18:42;;;;;;;3.15;1.10;;;;;;;11.57;61.00;97802.22;5038776;28;20389;-65
2022/05/13 00:21:10;;;;;;;4.22;1.10;;;;;;;11.58;60.97;97812.97;5038633;28;20049;-64
2022/05/13 00:23:37;;;;;;;2.40;1.00;;;;;;;11.54;61.50;97812.13;5038787;28;20076;-64
2022/05/13 00:26:04;;;;;;;1.30;0.80;;;;;;;11.51;61.08;97818.44;5038640;28;20046;-64
2022/05/13 00:28:32;;;;;;;2.13;1.10;;;;;;;11.55;60.95;97816.53;5038415;28;20056;-64
2022/05/13 00:31:01;;;;;;;1.90;0.80;;;;;;;11.51;61.28;97810.09;5039234;28;20554;-64
2022/05/13 00:33:28;;;;;;;1.48;0.77;;;;;;;11.50;61.11;97802.94;5038552;28;20108;-64
2022/05/13 00:35:55;;;;;;;1.52;0.90;;;;;;;11.46;61.03;97796.50;5038572;28;20492;-64
2022/05/13 00:38:23;;;;;;;1.80;1.00;;;;;;;11.46;60.91;97806.88;5038531;28;20144;-65
2022/05/13 00:40:50;;;;;;;2.97;1.00;;;;;;;11.44;60.80;97810.03;5036841;28;20056;-64
2022/05/13 00:43:46;;;;;;;1.33;0.75;;;;;;;11.50;61.07;97813.25;5035434;28;20050;-65
2022/05/13 00:46:14;;;;;;;2.38;0.95;;;;;;;11.52;60.67;97810.91;5035534;28;20045;-64
2022/05/13 00:48:41;;;;;;;1.17;0.80;;;;;;;11.49;60.70;97818.03;5035424;28;20057;-63
2022/05/13 00:51:10;;;;;;;1.20;0.82;;;;;;;11.49;60.76;97829.16;5035036;28;20049;-64
2022/05/13 00:53:38;;;;;;;1.30;0.70;;;;;;;11.46;60.68;97824.34;5035226;28;20060;-64
2022/05/13 00:56:06;;;;;;;0.95;0.65;;;;;;;11.47;60.72;97825.97;5035548;28;20136;-64
2022/05/13 00:58:36;;;;;;;1.50;0.90;;;;;;;11.47;60.31;97831.53;5034747;28;20531;-64
2022/05/13 01:01:03;;;;;;;1.83;0.70;;;;;;;11.50;60.52;97832.75;5035249;28;20046;-64
2022/05/13 01:03:30;;;;;;;1.85;0.80;;;;;;;11.53;59.87;97840.34;5034712;28;20140;-64
2022/05/13 01:06:00;;;;;;;2.83;1.00;;;;;;;11.50;59.79;97841.91;5034806;28;20061;-64
2022/05/13 01:08:31;;;;;;;1.60;0.90;;;;;;;11.49;60.77;97840.28;5034708;28;20065;-64
2022/05/13 01:11:00;;;;;;;1.02;0.73;;;;;;;11.45;60.19;97842.25;5034942;28;20420;-64
2022/05/13 01:13:29;;;;;;;1.50;0.73;;;;;;;11.41;59.64;97833.06;5017194;28;20063;-65
2022/05/13 01:15:56;;;;;;;2.17;0.90;;;;;;;11.44;59.96;97851.78;5035323;28;20053;-64
2022/05/13 01:18:28;;;;;;;2.15;0.90;;;;;;;11.45;59.81;97836.69;5034819;28;20052;-64
2022/05/13 01:20:55;;;;;;;1.20;0.73;;;;;;;11.46;59.91;97835.50;5035516;28;20091;-65
2022/05/13 01:23:30;;;;;;;2.25;0.90;;;;;;;11.51;59.02;97842.69;5017689;28;20054;-64
2022/05/13 01:26:01;;;;;;;2.15;1.70;;;;;;;11.51;59.41;97853.84;5019867;28;20049;-70
2022/05/13 01:28:36;;;;;;;1.50;0.98;;;;;;;11.51;59.15;97848.28;5034390;28;20055;-70
2022/05/13 01:31:09;;;;;;;1.33;0.90;;;;;;;11.46;58.89;97852.19;5034588;28;20049;-71
2022/05/13 01:33:37;;;;;;;0.90;0.70;;;;;;;11.46;58.89;97846.63;5016657;28;20438;-70
2022/05/13 01:36:05;;;;;;;1.02;0.80;;;;;;;11.43;58.15;97836.25;5034459;28;20053;-69
2022/05/13 01:38:35;;;;;;;2.53;0.85;;;;;;;11.38;57.83;97856.09;5034060;28;20071;-70
2022/05/13 01:41:05;;;;;;;1.25;0.80;;;;;;;11.34;58.48;97851.66;5034392;28;20128;-69
2022/05/13 01:43:34;;;;;;;2.47;0.80;;;;;;;11.29;57.83;97840.84;5016457;28;20060;-71
2022/05/13 01:46:02;;;;;;;2.22;1.00;;;;;;;11.36;58.00;97854.84;5016725;28;20046;-71
2022/05/13 01:48:29;;;;;;;1.58;0.77;;;;;;;11.37;58.22;97854.47;5033875;28;20057;-70
2022/05/13 01:50:57;;;;;;;2.90;0.80;;;;;;;11.38;57.81;97850.53;5034235;28;20404;-70
2022/05/13 01:53:24;;;;;;;2.67;1.05;;;;;;;11.40;57.96;97848.16;5032889;28;20048;-70
2022/05/13 01:55:52;;;;;;;5.55;1.20;;;;;;;11.32;57.74;97852.03;5034033;28;20084;-70
2022/05/13 01:58:21;;;;;;;2.75;1.02;;;;;;;11.36;57.27;97852.06;5038550;28;20140;-74
2022/05/13 02:00:51;;;;;;;3.67;1.00;;;;;;;11.31;57.84;97855.97;5053638;28;20056;-74
2022/05/13 02:06:04;;;;;;;1.92;0.80;;;;;;;11.25;57.99;97865.84;5053955;28;20055;-74
2022/05/13 02:08:32;;;;;;;1.95;0.68;;;;;;;11.22;57.23;97871.38;5053375;28;20096;-74
2022/05/13 02:10:59;;;;;;;4.60;0.85;;;;;;;11.20;57.77;97857.03;5053597;28;20041;-74
2022/05/13 02:13:27;;;;;;;2.15;1.00;;;;;;;11.19;57.27;97863.78;5053329;28;20048;-74
2022/05/13 02:15:54;;;;;;;5.68;0.98;;;;;;;11.14;57.25;97857.34;5053585;28;20500;-74
2022/05/13 02:18:21;;;;;;;1.05;0.70;;;;;;;11.18;57.17;97876.91;5053530;28;20076;-73
2022/05/13 02:20:48;;;;;;;3.67;0.90;;;;;;;11.24;57.28;97878.16;5053548;28;20059;-75
2022/05/13 02:23:20;;;;;;;1.42;0.73;;;;;;;11.23;56.88;97884.94;5053588;28;20140;-74
2022/05/13 02:25:48;;;;;;;2.25;1.15;;;;;;;11.22;57.05;97890.88;5053561;28;20054;-73
2022/05/13 02:28:15;;;;;;;1.60;0.70;;;;;;;11.19;57.50;97886.84;5053433;28;20057;-74
2022/05/13 02:30:42;;;;;;;1.23;0.88;;;;;;;11.23;57.26;97893.28;5053413;28;20095;-75
2022/05/13 02:33:09;;;;;;;1.30;0.60;;;;;;;11.26;56.80;97892.53;5053033;28;20049;-74
2022/05/13 02:35:36;;;;;;;1.10;0.70;;;;;;;11.28;57.26;97892.94;5053052;28;20091;-74
2022/05/13 02:38:04;;;;;;;2.63;0.77;;;;;;;11.26;56.64;97886.97;5053245;28;20053;-74
2022/05/13 02:43:16;;;;;;;2.40;0.95;;;;;;;11.17;57.02;97905.91;5037810;28;20519;-74
2022/05/13 02:45:43;;;;;;;3.03;1.17;;;;;;;11.08;58.18;97900.59;4995631;28;20513;-66
2022/05/13 02:48:10;;;;;;;2.40;0.90;;;;;;;11.12;58.23;97897.88;5022108;28;20045;-65
2022/05/13 02:50:39;;;;;;;2.78;0.75;;;;;;;11.09;57.26;97909.75;5052991;28;20053;-66
2022/05/13 02:53:06;;;;;;;1.45;0.70;;;;;;;11.13;57.57;97920.97;5052847;28;20462;-67
2022/05/13 02:55:34;;;;;;;2.65;0.60;;;;;;;11.06;57.59;97905.75;5053023;28;20040;-65
2022/05/13 02:58:01;;;;;;;2.53;0.93;;;;;;;11.10;57.26;97911.34;5048763;28;20049;-66
2022/05/13 03:00:28;;;;;;;2.58;0.80;;;;;;;11.21;57.35;97917.06;5033025;28;20144;-65
2022/05/13 03:02:55;;;;;;;4.55;0.98;;;;;;;11.23;56.97;97926.69;5032630;28;20060;-66
2022/05/13 03:05:23;;;;;;;2.97;1.02;;;;;;;11.18;56.88;97918.63;5032571;28;20512;-65
2022/05/13 03:07:50;;;;;;;2.00;0.77;;;;;;;11.13;56.78;97919.78;5032645;28;20144;-65
2022/05/13 03:10:18;;;;;;;1.60;0.80;;;;;;;11.15;56.80;97924.97;5041963;28;20075;-65
2022/05/13 03:12:45;;;;;;;4.30;1.80;;;;;;;11.14;56.98;97931.72;5052702;28;20388;-65
2022/05/13 03:15:13;;;;;;;3.10;0.90;;;;;;;11.06;56.96;97927.22;5052999;28;20057;-65
2022/05/13 03:17:40;;;;;;;2.08;0.77;;;;;;;11.09;57.35;97934.81;5053276;28;20045;-64
2022/05/13 03:20:11;;;;;;;1.27;0.73;;;;;;;11.13;56.56;97923.75;5052913;28;20057;-71
2022/05/13 03:22:39;;;;;;;3.45;1.00;;;;;;;11.16;56.75;97934.91;5035339;28;20424;-70
2022/05/13 03:25:07;;;;;;;1.65;0.90;;;;;;;11.17;57.30;97946.84;5052515;28;20065;-69
2022/05/13 03:27:34;;;;;;;4.75;1.15;;;;;;;11.22;57.07;97940.97;5052199;28;20098;-70
2022/05/13 03:30:01;;;;;;;1.75;0.82;;;;;;;11.17;56.71;97942.09;5052851;28;20073;-69
2022/05/13 03:32:29;;;;;;;3.03;0.88;;;;;;;11.11;56.97;97929.69;5037093;28;20088;-70
2022/05/13 03:34:56;;;;;;;2.65;0.80;;;;;;;11.17;56.91;97939.31;5012894;28;20057;-69
2022/05/13 03:37:23;;;;;;;2.00;0.73;;;;;;;11.22;57.02;97936.19;5012730;28;20049;-72
2022/05/13 03:39:50;;;;;;;2.33;1.00;;;;;;;11.13;56.94;97938.44;5013315;28;20058;-69
2022/05/13 03:42:17;;;;;;;3.88;0.90;;;;;;;11.16;56.77;97943.25;5012579;28;20457;-69
2022/05/13 03:44:44;;;;;;;2.55;1.13;;;;;;;11.20;56.91;97944.13;5012834;28;20064;-70
2022/05/13 03:47:11;;;;;;;2.88;0.80;;;;;;;11.23;56.76;97940.59;5012453;28;20057;-70
2022/05/13 03:49:38;;;;;;;2.28;0.85;;;;;;;11.18;57.06;97949.25;5045660;28;20060;-70
2022/05/13 03:52:05;;;;;;;3.55;1.17;;;;;;;11.21;56.78;97945.72;5052282;28;20052;-70
2022/05/13 03:54:32;;;;;;;9.02;1.30;;;;;;;11.15;57.03;97947.22;5052038;28;20048;-69
2022/05/13 03:56:59;;;;;;;4.60;1.20;;;;;;;11.20;56.77;97949.69;5051865;28;20135;-69
2022/05/13 03:59:26;;;;;;;1.10;0.80;;;;;;;11.34;56.99;97958.22;5052278;28;20134;-69
2022/05/13 04:01:54;;;;;;;1.63;0.93;;;;;;;11.38;56.61;97952.72;5052175;28;20128;-69
2022/05/13 04:04:22;;;;;;;1.65;0.80;;;;;;;11.39;56.21;97955.13;5052251;28;20049;-69
2022/05/13 04:09:35;;;;;;;3.67;1.10;;;;;;;11.53;56.76;97962.88;5052002;28;20063;-70
2022/05/13 04:17:36;;;;;;;1.63;0.90;;;;;;;11.68;56.00;97965.50;5054783;28;20051;-70
2022/05/13 04:20:04;;;;;;;3.60;1.10;;;;;;;11.75;55.65;97968.38;5055582;28;20049;-70
2022/05/13 04:22:31;;;;;;;2.45;0.93;;;;;;;11.98;54.83;97966.28;5026871;28;20054;-70
2022/05/13 04:24:59;;;;;;;5.55;1.20;;;;;;;12.14;54.30;97978.03;5011634;28;20448;-69
2022/05/13 04:27:26;;;;;;;3.47;1.15;;;;;;;12.14;54.53;97961.28;5055367;28;20520;-70
2022/05/13 04:29:53;;;;;;;1.10;0.80;;;;;;;12.11;54.43;97978.78;5055762;28;20139;-71
2022/05/13 04:32:20;;;;;;;2.35;1.10;;;;;;;12.13;54.62;97975.63;5055473;28;20051;-70
2022/05/13 04:34:47;;;;;;;3.35;0.80;;;;;;;12.01;54.31;97968.31;5055637;28;20064;-70
2022/05/13 04:37:14;;;;;;;7.80;1.13;;;;;;;12.11;54.16;97976.00;5055380;28;20579;-70
2022/05/13 04:39:43;;;;;;;2.75;1.00;;;;;;;12.11;53.98;97967.63;5055226;28;20574;-72
2022/05/13 04:44:57;;;;;;;1.33;0.88;;;;;;;12.26;53.58;97968.59;5055535;28;20059;-72
2022/05/13 04:50:12;;;;;;;1.83;1.02;;;;;;;12.37;53.51;97964.75;5016184;28;20046;-71
2022/05/13 04:52:40;;;;;;;4.30;0.93;;;;;;;12.33;53.83;97969.50;4998411;28;20136;-69
2022/05/13 04:55:08;;;;;;;3.17;1.05;;;;;;;12.40;53.36;97977.91;5015933;28;20080;-69
2022/05/13 04:57:35;;;;;;;1.95;0.95;;;;;;;12.57;52.71;97974.50;5015319;28;20053;-69
2022/05/13 05:00:04;;;;;;;2.88;0.90;;;;;;;12.61;52.68;97975.34;5015371;28;20149;-69
2022/05/13 05:02:33;;;;;;;2.85;1.10;;;;;;;12.84;52.30;97984.34;5015186;28;20116;-71
2022/05/13 05:05:00;;;;;;;9.02;1.50;;;;;;;12.96;51.75;97974.06;5015607;28;20108;-70
2022/05/13 05:07:29;;;;;;;3.75;0.90;;;;;;;13.19;51.34;97971.88;5014856;28;20149;-71
2022/05/13 05:09:56;;;;;;;1.85;0.85;;;;;;;13.10;51.10;97977.00;5021670;28;20054;-71
2022/05/13 05:12:23;;;;;;;1.85;0.90;;;;;;;13.11;50.69;97973.81;5034631;28;20073;-71
2022/05/13 05:14:50;;;;;;;3.88;1.08;;;;;;;13.08;51.00;97990.56;5034915;28;20049;-70
2022/05/13 05:17:17;;;;;;;8.25;0.80;;;;;;;12.98;50.90;97989.25;5034632;28;20053;-69
2022/05/13 05:19:44;;;;;;;2.95;0.98;;;;;;;13.05;50.85;97989.31;5034859;28;20049;-71
2022/05/13 05:22:11;;;;;;;4.38;0.80;;;;;;;13.17;50.74;98000.19;5034387;28;20060;-70
2022/05/13 05:24:38;;;;;;;2.67;0.90;;;;;;;13.12;50.79;97991.38;5034524;28;20053;-70
2022/05/13 05:27:09;;;;;;;1.90;0.70;;;;;;;13.27;50.49;98002.28;5053175;28;20056;-70
2022/05/13 05:29:37;;;;;;;1.65;0.70;;;;;;;13.15;50.85;97998.97;5054451;28;20072;-70
2022/05/13 05:32:04;;;;;;;3.08;1.10;;;;;;;13.20;50.85;97995.84;5054266;28;20129;-71
2022/05/13 05:34:32;;;;;;;1.42;0.85;;;;;;;13.28;50.65;98001.06;5054452;28;20049;-71
2022/05/13 05:36:59;;;;;;;5.32;0.88;;;;;;;13.26;50.71;98016.63;5054216;28;20045;-72
2022/05/13 05:39:26;;;;;;;1.35;0.80;;;;;;;13.26;50.19;97999.88;5048643;28;20049;-73
2022/05/13 05:41:53;;;;;;;1.63;0.70;;;;;;;13.14;49.57;97997.38;5013799;28;20390;-72
2022/05/13 05:44:20;;;;;;;1.85;0.98;;;;;;;13.60;49.22;98004.91;5014461;28;20046;-72
2022/05/13 05:46:47;;;;;;;4.03;0.75;;;;;;;13.81;48.72;98005.03;5029448;28;20067;-71
2022/05/13 05:49:14;;;;;;;2.22;1.00;;;;;;;14.02;48.13;98005.13;5034923;28;20128;-72
2022/05/13 05:51:41;;;;;;;5.47;0.98;;;;;;;14.11;47.31;97996.38;5034078;28;20049;-70
2022/05/13 05:59:44;;;;;;;2.80;1.48;;;;;;;14.55;46.64;98010.94;5033978;28;20041;-70
2022/05/13 06:02:12;;;;;;;4.90;1.05;;;;;;;15.24;45.88;98006.63;5033450;28;20132;-71
2022/05/13 06:04:40;;;;;;;5.85;2.17;;;;;;;20.31;36.37;98008.88;5033664;28;20467;-69
2022/05/13 06:07:10;;;;;;;4.93;1.05;;;;;;;23.90;30.47;98006.34;5033408;28;20517;-71
2022/05/13 06:09:39;;;;;;;4.45;1.02;;;;;;;21.98;32.71;97999.72;5033590;28;20260;-70
2022/05/13 06:12:07;;;;;;;2.75;1.00;;;;;;;19.95;35.76;98009.53;5033381;28;20128;-70
2022/05/13 06:14:34;;;;;;;1.30;0.75;;;;;;;18.72;37.44;98010.75;5039896;28;20112;-69
2022/05/13 06:17:08;;;;;;;7.32;1.23;;;;;;;17.41;39.73;98018.97;5053515;28;20080;-70
2022/05/13 06:19:35;;;;;;;1.65;0.90;;;;;;;18.23;38.60;98008.50;5053677;28;20056;-70
2022/05/13 06:22:02;;;;;;;5.47;0.98;;;;;;;19.37;36.23;98010.19;5052964;28;20436;-70
2022/05/13 06:24:29;;;;;;;3.47;0.80;;;;;;;18.01;37.47;98018.44;5049940;28;20128;-70
2022/05/13 06:26:56;;;;;;;4.25;0.90;;;;;;;17.22;38.98;98035.59;5033430;28;20603;-66
2022/05/13 06:29:24;;;;;;;2.90;0.77;;;;;;;16.72;40.14;98020.28;5033378;28;20059;-65
2022/05/13 06:31:53;;;;;;;1.92;0.73;;;;;;;16.58;40.72;98023.94;5033822;28;20535;-67
2022/05/13 06:34:22;;;;;;;1.23;0.68;;;;;;;15.90;41.54;98022.59;5033579;28;20045;-66
2022/05/13 06:36:50;;;;;;;3.45;0.63;;;;;;;15.40;42.77;98025.88;5033455;28;20092;-65
2022/05/13 06:39:18;;;;;;;2.10;0.85;;;;;;;14.84;44.02;98026.63;5032345;28;20104;-65
2022/05/13 06:41:46;;;;;;;1.60;0.95;;;;;;;14.63;44.82;98027.34;5033097;28;20421;-66
2022/05/13 06:44:15;;;;;;;2.83;1.17;;;;;;;14.58;45.20;98032.53;5033208;28;20136;-66
2022/05/13 06:46:42;;;;;;;3.30;1.10;;;;;;;14.42;45.32;98034.91;5033022;28;20051;-66
2022/05/13 06:49:11;;;;;;;2.08;0.80;;;;;;;14.38;45.85;98025.66;5032670;28;20057;-66
2022/05/13 06:51:40;;;;;;;3.38;1.20;;;;;;;14.49;45.35;98040.50;5032989;28;20077;-66
2022/05/13 06:54:11;;;;;;;5.00;0.90;;;;;;;14.36;45.63;98033.69;5032869;28;20132;-65
2022/05/13 06:56:41;;;;;;;4.43;0.93;;;;;;;14.13;46.34;98041.53;5033166;28;20061;-65
2022/05/13 06:59:11;;;;;;;;;;;;;;;13.92;47.06;98047.78;5033226;28;20045;-65
2022/05/13 07:01:40;;;;;;;4.57;0.73;;;;;;;13.90;47.16;98041.81;5032683;28;19972;-66
2022/05/13 07:04:07;;;;;;;1.85;0.82;;;;;;;14.30;46.44;98049.25;5012610;28;20049;-66
2022/05/13 07:06:34;;;;;;;4.90;0.75;;;;;;;15.02;45.02;98046.22;5051955;28;20095;-67
2022/05/13 07:09:01;;;;;;;6.80;1.00;;;;;;;16.21;42.31;98046.94;5052599;28;20559;-65
2022/05/13 07:11:28;;;;;;;4.45;1.20;;;;;;;17.39;40.38;98037.47;5033253;28;20100;-66
2022/05/13 07:13:55;;;;;;;5.15;0.93;;;;;;;17.52;39.64;98027.34;5032616;28;20435;-66
2022/05/13 07:16:23;;;;;;;4.43;1.17;;;;;;;16.83;40.82;98040.66;5032552;28;20053;-66
2022/05/13 07:18:50;;;;;;;2.97;1.00;;;;;;;16.13;42.07;98042.56;5032612;28;20045;-65
2022/05/13 07:21:17;;;;;;;6.43;0.90;;;;;;;15.77;42.50;98052.25;5032871;28;20100;-65
2022/05/13 07:23:44;;;;;;;2.25;0.70;;;;;;;19.35;36.84;98038.00;5032335;28;20052;-65
2022/05/13 07:26:11;;;;;;;3.40;0.82;;;;;;;22.23;31.38;98023.28;5032864;28;20103;-65
2022/05/13 07:28:38;;;;;;;1.90;0.98;;;;;;;20.70;34.06;98040.75;5032502;28;20053;-65
2022/05/13 07:31:07;;;;;;;5.93;1.02;;;;;;;22.72;31.03;98026.78;5032331;28;20050;-65
2022/05/13 07:33:35;;;;;;;3.90;1.20;;;;;;;22.05;31.52;98030.69;5032065;28;20049;-66
2022/05/13 07:36:04;;;;;;;2.33;0.88;;;;;;;20.27;33.73;98039.22;5032333;28;20055;-66
2022/05/13 07:38:32;;;;;;;4.07;1.00;;;;;;;22.49;30.51;98041.97;5031882;28;20053;-65
2022/05/13 07:41:19;;;;;;;2.88;0.80;;;;;;;24.28;27.48;98041.16;5032320;28;20057;-65
2022/05/13 07:43:46;;;;;;;1.88;0.80;;;;;;;22.17;29.86;98050.56;5032207;28;20133;-65
2022/05/13 07:46:14;;;;;;;2.47;0.82;;;;;;;19.83;33.23;98048.88;5031740;28;20060;-65
2022/05/13 07:48:42;;;;;;;4.60;1.25;;;;;;;20.26;33.06;98055.38;5032107;28;20144;-65
2022/05/13 07:51:09;;;;;;;4.25;0.70;;;;;;;21.08;31.57;98049.66;5034300;28;20088;-65
2022/05/13 07:53:37;;;;;;;3.38;1.58;;;;;;;23.50;28.35;98042.22;5018708;28;20041;-69
2022/05/13 07:56:05;;;;;;;1.25;0.60;;;;;;;23.73;27.48;98027.63;5036268;28;20132;-72
2022/05/13 07:58:32;;;;;;;2.80;0.93;;;;;;;21.62;30.28;98031.72;5036176;28;20052;-70
2022/05/13 08:01:00;;;;;;;5.35;0.90;;;;;;;20.40;31.69;98040.97;5036389;28;20053;-70
2022/05/13 08:03:30;;;;;;;1.52;0.60;;;;;;;19.62;33.15;98046.41;5035485;28;20370;-70
2022/05/13 08:06:03;;;;;;;1.33;0.60;;;;;;;18.98;33.54;98042.97;5036411;28;20119;-70
2022/05/13 08:08:35;;;;;;;2.63;0.60;;;;;;;19.39;32.09;98019.00;5035896;28;20130;-69
2022/05/13 08:11:05;;;;;;;1.10;0.82;;;;;;;22.59;28.27;98032.41;5051503;28;20057;-71
2022/05/13 08:13:34;;;;;;;;;;;;;;;27.02;22.28;98022.09;5056359;28;20043;-70
2022/05/13 08:16:04;;;;;;;1.85;0.82;;;;;;;27.51;22.09;98030.38;5038884;28;19952;-70
2022/05/13 08:18:31;;;;;;;3.83;0.80;;;;;;;30.04;19.33;98021.13;5035906;28;20568;-69
2022/05/13 08:20:59;;;;;;;0.95;0.80;;;;;;;32.92;17.29;98025.28;5036197;28;20119;-71
2022/05/13 08:23:26;;;;;;;6.32;3.15;;;;;;;35.14;14.87;98015.00;5035787;28;20053;-69
2022/05/13 08:25:54;;;;;;;3.08;1.20;;;;;;;33.76;15.80;98023.28;5035629;28;20049;-70
2022/05/13 08:28:23;;;;;;;3.53;0.90;;;;;;;33.48;15.64;98018.31;5035718;28;20084;-70
2022/05/13 08:30:50;;;;;;;7.07;0.90;;;;;;;31.66;16.73;98016.72;5035711;28;20041;-69
2022/05/13 08:33:18;;;;;;;2.50;0.80;;;;;;;30.25;17.53;98024.03;5035658;28;20045;-71
2022/05/13 08:35:51;;;;;;;1.80;0.80;;;;;;;26.50;21.45;98028.19;5035851;28;20136;-70
2022/05/13 08:38:23;;;;;;;1.90;0.60;;;;;;;24.48;23.82;98030.31;5035216;28;20144;-70
2022/05/13 08:40:53;;;;;;;1.42;0.70;;;;;;;22.67;26.38;98045.13;5035522;28;20141;-70
2022/05/13 08:43:24;;;;;;;4.40;2.38;;;;;;;26.03;21.69;98045.72;5017351;28;20091;-69
2022/05/13 08:46:13;;;;;;;2.95;0.90;;;;;;;28.42;19.67;98034.34;5017818;28;20056;-70
2022/05/13 08:48:56;;;;;;;8.02;0.90;;;;;;;32.82;15.66;98031.78;5035198;28;20132;-71
2022/05/13 08:51:42;;;;;;;4.25;1.40;;;;;;;34.32;15.08;98025.59;5035444;28;20049;-69
2022/05/13 08:54:15;;;;;;;1.25;0.60;;;;;;;30.04;18.02;98038.34;5035164;28;20053;-70
2022/05/13 08:56:52;;;;;;;1.08;0.57;;;;;;;26.80;20.59;98033.72;5034938;28;20041;-69
2022/05/13 08:59:47;;;;;;;2.45;0.63;;;;;;;24.81;22.95;98023.75;5035226;28;20050;-70
2022/05/13 09:02:33;;;;;;;2.97;0.82;;;;;;;26.08;21.05;98016.56;5030189;28;20115;-73
2022/05/13 09:04:59;;;;;;;5.50;0.98;;;;;;;26.09;20.98;98038.13;5035055;28;20072;-70
2022/05/13 09:07:27;;;;;;;2.10;0.80;;;;;;;23.65;23.42;98029.16;5034619;28;20063;-69
2022/05/13 09:09:59;;;;;;;1.90;0.80;;;;;;;24.93;22.19;98045.66;5029847;28;20516;-70
2022/05/13 09:12:31;;;;;;;6.63;1.17;;;;;;;27.52;19.18;98026.25;5017163;28;20045;-64
2022/05/13 09:15:17;;;;;;;9.73;0.57;;;;;;;28.27;18.01;98027.78;5036546;28;20055;-64
2022/05/13 09:17:56;;;;;;;4.20;0.60;;;;;;;25.23;20.75;98029.06;5054717;28;20045;-64
2022/05/13 09:20:25;;;;;;;1.75;0.70;;;;;;;22.23;25.04;98034.63;5054703;28;20055;-63
2022/05/13 09:22:58;;;;;;;3.40;0.70;;;;;;;22.90;24.27;98052.56;5054239;28;20048;-64
2022/05/13 09:25:37;;;;;;;7.82;2.85;;;;;;;24.56;22.61;98028.75;5022922;28;20057;-64
2022/05/13 09:28:10;;;;;;;2.83;2.08;;;;;;;27.45;19.58;98030.25;5014670;28;20092;-65
2022/05/13 09:30:49;;;;;;;3.45;0.70;;;;;;;29.17;17.62;98021.28;5014810;28;20062;-64
2022/05/13 09:33:18;;;;;;;;;;;;;;;27.58;19.06;98022.25;5015035;28;20046;-65
2022/05/13 09:35:47;;;;;;;0.95;0.50;;;;;;;24.44;21.84;98027.56;5014720;28;19929;-64
2022/05/13 09:38:16;;;;;;;;;;;;;;;21.97;24.37;98032.91;5014961;28;20501;-64
2022/05/13 09:40:59;;;;;;;1.25;0.70;;;;;;;20.98;26.08;98048.66;5014592;28;19963;-65
2022/05/13 09:43:51;;;;;;;3.70;0.70;;;;;;;20.75;26.74;98034.56;5014451;28;20129;-63
2022/05/13 09:46:33;;;;;;;2.50;0.70;;;;;;;20.18;27.30;98050.28;5014283;28;20501;-64
2022/05/13 09:49:33;;;;;;;3.97;0.60;;;;;;;19.35;28.41;98040.81;5014309;28;20497;-64
2022/05/13 09:52:12;;;;;;;0.90;0.43;;;;;;;18.68;29.74;98049.41;5014243;28;20050;-65
2022/05/13 09:54:44;;;;;;;2.40;0.68;;;;;;;18.73;30.12;98048.16;5014330;28;20046;-66
2022/05/13 09:57:22;;;;;;;1.45;0.68;;;;;;;18.78;29.97;98048.50;5025651;28;20469;-66
2022/05/13 10:00:02;;;;;;;1.58;0.60;;;;;;;18.68;30.33;98051.44;5034137;28;20148;-66
2022/05/13 10:02:39;;;;;;;1.63;0.75;;;;;;;18.60;30.67;98058.38;5033915;28;20076;-66
2022/05/13 10:05:12;;;;;;;3.97;0.80;;;;;;;18.46;30.76;98056.53;5027772;28;20049;-66
2022/05/13 10:07:49;;;;;;;2.97;0.60;;;;;;;18.19;30.54;98045.16;5033530;28;20053;-66
2022/05/13 10:16:01;;;;;;;1.08;0.65;;;;;;;17.92;31.20;98060.34;5052938;28;20623;-65
2022/05/13 10:18:30;;;;;;;2.67;0.60;;;;;;;17.87;31.58;98053.16;5053528;28;20139;-65
2022/05/13 10:21:07;;;;;;;0.98;0.70;;;;;;;17.79;31.69;98060.03;5053587;28;20091;-65
2022/05/13 10:23:40;;;;;;;2.08;0.85;;;;;;;17.92;31.69;98060.34;5053414;28;20041;-66
2022/05/13 10:26:12;;;;;;;1.23;0.75;;;;;;;17.96;32.02;98066.72;5036482;28;20053;-66
2022/05/13 10:28:51;;;;;;;2.92;0.95;;;;;;;18.15;32.00;98061.28;5033947;28;20045;-66
2022/05/13 10:31:25;;;;;;;1.25;0.70;;;;;;;18.23;31.78;98059.19;5033294;28;20057;-66
2022/05/13 10:34:00;;;;;;;1.23;0.60;;;;;;;18.01;31.73;98052.19;5033298;28;20092;-67
2022/05/13 10:36:44;;;;;;;2.58;0.68;;;;;;;17.93;31.97;98057.09;5033108;28;20080;-68
2022/05/13 10:39:35;;;;;;;0.95;0.60;;;;;;;18.06;31.73;98044.09;5033198;28;20045;-71
2022/05/13 10:42:09;;;;;;;1.95;0.73;;;;;;;18.14;31.66;98058.88;5033320;28;20096;-70
2022/05/13 10:44:43;;;;;;;1.30;0.70;;;;;;;18.15;32.29;98057.69;5033092;28;20076;-70
2022/05/13 10:47:34;;;;;;;4.05;1.02;;;;;;;18.24;31.95;98047.50;5027903;28;20542;-70
2022/05/13 10:50:01;;;;;;;1.40;0.68;;;;;;;18.22;31.47;98035.09;5031486;28;20132;-67
2022/05/13 10:52:34;;;;;;;3.28;0.63;;;;;;;17.86;31.50;98039.50;5032682;28;20046;-67
2022/05/13 10:55:19;;;;;;;5.95;2.72;;;;;;;17.70;31.79;98039.22;5032970;28;20055;-67
2022/05/13 10:58:04;;;;;;;1.85;0.60;;;;;;;17.46;32.02;98037.44;5015280;28;20517;-68
2022/05/13 11:00:51;;;;;;;1.63;0.88;;;;;;;17.51;32.02;98028.56;5033260;28;20139;-68
2022/05/13 11:03:32;;;;;;;0.85;0.63;;;;;;;17.70;32.12;98000.66;5036495;28;20037;-67
2022/05/13 11:06:33;;;;;;;1.75;0.50;;;;;;;17.77;31.71;98031.53;5052749;28;20534;-68
2022/05/13 11:09:22;;;;;;;4.82;0.55;;;;;;;17.95;31.23;98037.00;5053269;28;20052;-66
2022/05/13 11:11:57;;;;;;;3.60;0.60;;;;;;;18.08;31.13;98029.59;5011531;28;20144;-67
2022/05/13 11:14:51;;;;;;;2.05;0.70;;;;;;;18.15;30.94;98038.75;5021176;28;20069;-64
2022/05/13 11:17:32;;;;;;;4.38;0.88;;;;;;;17.81;31.10;98045.56;5031209;28;20140;-69
2022/05/13 11:20:04;;;;;;;2.17;0.60;;;;;;;17.73;31.24;98044.03;5032407;28;20049;-65
2022/05/13 11:23:03;;;;;;;0.88;0.52;;;;;;;17.64;31.47;98040.88;5030231;28;20559;-64
2022/05/13 11:25:57;;;;;;;1.90;0.50;;;;;;;17.42;31.63;98042.28;5025524;28;20148;-67
2022/05/13 11:28:44;;;;;;;1.38;0.80;;;;;;;17.30;32.12;98037.16;5007769;28;20239;-68
2022/05/13 11:31:35;;;;;;;13.00;0.98;;;;;;;17.56;32.08;98022.50;5032502;28;20076;-68
2022/05/13 11:34:30;;;;;;;3.20;0.70;;;;;;;17.47;33.26;98033.44;5032559;28;20053;-68
2022/05/13 11:37:03;;;;;;;1.52;0.73;;;;;;;17.32;33.06;98031.91;5032469;28;20484;-69
2022/05/13 11:39:57;;;;;;;7.63;0.95;;;;;;;17.34;33.10;98021.03;5032121;28;20128;-68
2022/05/13 11:45:59;;;;;;;3.30;0.70;;;;;;;17.55;31.49;98012.44;5032753;28;20472;-70
2022/05/13 11:48:35;;;;;;;1.88;0.70;;;;;;;17.43;31.84;98015.75;5032409;28;20049;-68
2022/05/13 11:51:10;;;;;;;4.68;0.68;;;;;;;17.26;32.29;98019.53;5032356;28;20080;-68
2022/05/13 11:54:00;;;;;;;0.68;0.60;;;;;;;17.28;32.06;98025.50;5039132;28;20393;-68
2022/05/13 11:56:30;;;;;;;;;;;;;;;17.30;31.95;98035.16;5043258;28;20068;-69
2022/05/13 11:59:09;;;;;;;7.45;0.75;;;;;;;17.46;31.71;98023.38;5052039;28;19931;-69
2022/05/13 12:01:36;;;;;;;4.57;0.80;;;;;;;17.54;31.13;98034.16;5052085;28;20064;-68
2022/05/13 12:04:12;;;;;;;2.97;0.52;;;;;;;16.23;37.33;98054.97;5041525;28;20049;-69
2022/05/13 12:06:51;;;;;;;3.95;0.75;;;;;;;15.44;40.13;98052.69;5032061;28;20489;-67
2022/05/13 12:09:34;;;;;;;1.20;0.60;;;;;;;16.08;37.94;98059.81;5031987;28;20046;-68
2022/05/13 12:12:05;;;;;;;3.50;0.70;;;;;;;16.51;36.86;98054.88;5031799;28;20131;-68
2022/05/13 12:14:39;;;;;;;3.08;0.65;;;;;;;16.59;36.62;98039.59;5032437;28;20052;-67
2022/05/13 12:17:27;;;;;;;2.38;0.90;;;;;;;16.55;36.51;98043.63;5032522;28;20144;-68
2022/05/13 12:20:00;;;;;;;2.63;0.80;;;;;;;16.57;35.69;98030.78;5031959;28;20049;-68
2022/05/13 12:22:29;;;;;;;5.22;0.90;;;;;;;16.61;35.98;98013.94;5031923;28;20069;-63
2022/05/13 12:25:08;;;;;;;1.80;0.80;;;;;;;16.66;34.87;98019.09;5032341;28;20107;-64
2022/05/13 12:28:08;;;;;;;0.73;0.52;;;;;;;16.77;34.03;98009.41;5032073;28;20452;-63